createdAt,value
2017-09-11T00:01:45.342Z,14.81
2017-09-11T00:04:12.734Z,14.85
2017-09-11T00:06:40.118Z,14.87
2017-09-11T00:09:07.511Z,14.87
2017-09-11T00:11:34.899Z,14.90
2017-09-11T00:14:02.282Z,14.79
2017-09-11T00:16:29.690Z,14.81
2017-09-11T00:18:57.079Z,14.82
2017-09-11T00:21:24.474Z,14.91
2017-09-11T00:23:51.870Z,14.88
2017-09-11T00:26:19.258Z,14.81
2017-09-11T00:28:46.642Z,14.92
2017-09-11T00:31:14.042Z,14.92
2017-09-11T00:33:41.422Z,14.80
2017-09-11T00:36:08.818Z,14.89
2017-09-11T00:38:36.203Z,14.97
2017-09-11T00:41:03.590Z,15.02
2017-09-11T00:43:30.996Z,14.95
2017-09-11T00:45:58.374Z,14.83
2017-09-11T00:48:25.756Z,14.94
2017-09-11T00:50:53.143Z,14.89
2017-09-11T00:53:20.528Z,14.96
2017-09-11T00:55:47.918Z,14.93
2017-09-11T00:58:15.302Z,15.08
2017-09-11T01:00:42.683Z,14.91
2017-09-11T01:03:10.069Z,14.87
2017-09-11T01:05:37.442Z,14.94
2017-09-11T01:08:04.831Z,14.95
2017-09-11T01:10:32.249Z,14.98
2017-09-11T01:12:59.675Z,15.01
2017-09-11T01:15:27.168Z,15.06
2017-09-11T01:17:54.554Z,15.18
2017-09-11T01:20:21.942Z,15.24
2017-09-11T01:22:49.331Z,15.28
2017-09-11T01:25:16.790Z,15.20
2017-09-11T01:27:44.179Z,15.12
2017-09-11T01:30:11.566Z,15.13
2017-09-11T01:32:38.969Z,15.00
2017-09-11T01:35:06.415Z,15.05
2017-09-11T01:37:33.798Z,14.98
2017-09-11T01:40:01.215Z,14.99
2017-09-11T01:42:28.599Z,14.94
2017-09-11T01:44:55.982Z,15.05
2017-09-11T01:47:23.486Z,15.14
2017-09-11T01:49:50.875Z,15.16
2017-09-11T01:52:18.250Z,15.27
2017-09-11T01:54:45.651Z,15.23
2017-09-11T01:57:13.031Z,15.35
2017-09-11T01:59:40.506Z,15.39
2017-09-11T02:02:35.570Z,15.31
2017-09-11T02:05:02.957Z,15.20
2017-09-11T02:07:30.327Z,15.26
2017-09-11T02:09:57.718Z,15.22
2017-09-11T02:12:25.106Z,15.24
2017-09-11T02:14:52.491Z,15.29
2017-09-11T02:17:19.883Z,15.31
2017-09-11T02:19:47.274Z,15.25
2017-09-11T02:22:14.655Z,15.24
2017-09-11T02:24:42.048Z,15.22
2017-09-11T02:27:09.522Z,15.18
2017-09-11T02:29:36.984Z,15.24
2017-09-11T02:32:04.375Z,15.25
2017-09-11T02:34:31.769Z,15.29
2017-09-11T02:36:59.156Z,15.29
2017-09-11T02:39:26.538Z,15.44
2017-09-11T02:41:53.921Z,15.41
2017-09-11T02:44:21.311Z,15.41
2017-09-11T02:46:48.690Z,15.44
2017-09-11T02:49:16.122Z,15.48
2017-09-11T02:51:43.518Z,15.50
2017-09-11T02:54:10.886Z,15.54
2017-09-11T02:56:38.386Z,15.50
2017-09-11T02:59:05.771Z,15.48
2017-09-11T03:01:33.162Z,15.56
2017-09-11T03:04:00.553Z,15.46
2017-09-11T03:06:28.018Z,15.47
2017-09-11T03:08:55.470Z,15.48
2017-09-11T03:11:22.927Z,15.55
2017-09-11T03:13:50.306Z,15.67
2017-09-11T03:16:17.694Z,15.77
2017-09-11T03:18:45.074Z,15.69
2017-09-11T03:21:12.554Z,15.71
2017-09-11T03:23:39.930Z,15.67
2017-09-11T03:26:07.319Z,15.73
2017-09-11T03:28:34.730Z,15.67
2017-09-11T03:31:02.115Z,15.76
2017-09-11T03:33:29.498Z,15.79
2017-09-11T03:35:56.981Z,15.66
2017-09-11T03:38:24.363Z,15.78
2017-09-11T03:40:51.751Z,15.82
2017-09-11T03:43:19.154Z,15.89
2017-09-11T03:45:46.539Z,15.81
2017-09-11T03:48:13.930Z,15.88
2017-09-11T03:50:41.314Z,15.88
2017-09-11T03:53:08.711Z,15.85
2017-09-11T03:55:36.091Z,15.84
2017-09-11T03:58:03.482Z,15.76
2017-09-11T04:00:30.866Z,15.66
2017-09-11T04:02:58.254Z,15.82
2017-09-11T04:05:25.633Z,15.79
2017-09-11T04:07:53.015Z,15.80
2017-09-11T04:10:20.389Z,15.85
2017-09-11T04:12:47.774Z,15.87
2017-09-11T04:15:15.150Z,15.74
2017-09-11T04:17:42.547Z,15.78
2017-09-11T04:20:09.925Z,15.79
2017-09-11T04:22:37.316Z,15.82
2017-09-11T04:25:04.746Z,15.62
2017-09-11T04:27:32.276Z,15.73
2017-09-11T04:29:59.624Z,15.68
2017-09-11T04:32:27.011Z,15.86
2017-09-11T04:34:54.424Z,15.90
2017-09-11T04:37:21.822Z,15.94
2017-09-11T04:39:49.206Z,15.68
2017-09-11T04:42:16.592Z,15.76
2017-09-11T04:44:43.983Z,15.80
2017-09-11T04:47:11.354Z,15.92
2017-09-11T04:49:38.750Z,15.68
2017-09-11T04:52:06.135Z,15.60
2017-09-11T04:54:33.539Z,15.67
2017-09-11T04:57:00.917Z,15.70
2017-09-11T04:59:28.306Z,15.71
2017-09-11T05:01:55.746Z,15.73
2017-09-11T05:04:23.129Z,15.83
2017-09-11T05:06:50.507Z,15.79
2017-09-11T05:09:17.898Z,15.80
2017-09-11T05:11:45.339Z,15.79
2017-09-11T05:14:12.727Z,15.75
2017-09-11T05:16:40.111Z,15.81
2017-09-11T05:19:07.491Z,15.85
2017-09-11T05:21:34.876Z,15.86
2017-09-11T05:24:02.317Z,15.81
2017-09-11T05:26:29.702Z,15.82
2017-09-11T05:28:57.096Z,15.81
2017-09-11T05:31:24.486Z,15.76
2017-09-11T05:33:51.866Z,15.65
2017-09-11T05:36:19.258Z,15.82
2017-09-11T05:38:46.643Z,15.87
2017-09-11T05:41:14.038Z,15.83
2017-09-11T05:43:41.423Z,15.78
2017-09-11T05:46:08.806Z,15.85
2017-09-11T05:48:36.191Z,15.75
2017-09-11T05:51:03.631Z,15.83
2017-09-11T05:53:31.015Z,15.75
2017-09-11T05:55:58.406Z,15.76
2017-09-11T05:58:25.783Z,15.77
2017-09-11T06:00:53.171Z,15.69
2017-09-11T06:03:20.547Z,15.67
2017-09-11T06:05:47.936Z,15.66
2017-09-11T06:08:15.914Z,15.76
2017-09-11T06:10:43.350Z,15.75
2017-09-11T06:13:10.719Z,15.89
2017-09-11T06:15:38.208Z,16.01
2017-09-11T06:18:06.076Z,15.96
2017-09-11T06:20:33.438Z,16.13
2017-09-11T06:23:00.826Z,16.06
2017-09-11T06:25:28.210Z,16.01
2017-09-11T06:27:55.617Z,15.96
2017-09-11T06:30:23.024Z,16.08
2017-09-11T06:32:50.418Z,16.08
2017-09-11T06:35:17.811Z,16.02
2017-09-11T06:37:45.198Z,15.82
2017-09-11T06:40:12.578Z,15.83
2017-09-11T06:42:40.020Z,15.74
2017-09-11T06:45:07.398Z,15.75
2017-09-11T06:47:34.826Z,15.76
2017-09-11T06:50:02.206Z,15.62
2017-09-11T06:52:29.596Z,15.70
2017-09-11T06:54:56.970Z,15.66
2017-09-11T06:57:24.394Z,15.62
2017-09-11T06:59:51.786Z,15.65
2017-09-11T07:02:19.311Z,15.59
2017-09-11T07:04:46.698Z,15.52
2017-09-11T07:07:14.170Z,15.59
2017-09-11T07:09:41.547Z,15.59
2017-09-11T07:12:20.878Z,15.57
2017-09-11T07:14:48.335Z,15.75
2017-09-11T07:17:15.695Z,15.73
2017-09-11T07:19:43.074Z,15.72
2017-09-11T07:22:10.450Z,15.80
2017-09-11T07:24:37.858Z,15.79
2017-09-11T07:27:05.247Z,15.92
2017-09-11T07:29:32.669Z,15.92
2017-09-11T07:32:00.097Z,15.91
2017-09-11T07:34:27.562Z,15.96
2017-09-11T07:36:55.014Z,15.82
2017-09-11T07:39:22.402Z,15.81
2017-09-11T07:41:49.827Z,15.81
2017-09-11T07:44:17.221Z,15.99
2017-09-11T07:46:44.614Z,16.51
2017-09-11T07:49:11.998Z,17.06
2017-09-11T07:51:39.382Z,17.55
2017-09-11T07:54:06.778Z,17.97
2017-09-11T07:56:34.432Z,18.58
2017-09-11T07:59:01.815Z,18.80
2017-09-11T08:01:29.204Z,19.07
2017-09-11T08:03:56.939Z,19.76
2017-09-11T08:06:25.371Z,20.30
2017-09-11T08:08:52.759Z,20.87
2017-09-11T08:11:20.233Z,22.08
2017-09-11T08:13:47.607Z,22.70
2017-09-11T08:16:14.999Z,23.29
2017-09-11T08:18:42.378Z,22.87
2017-09-11T08:21:09.926Z,23.06
2017-09-11T08:23:37.303Z,22.95
2017-09-11T08:26:04.691Z,23.00
2017-09-11T08:28:32.098Z,22.43
2017-09-11T08:30:59.486Z,22.11
2017-09-11T08:33:26.871Z,21.50
2017-09-11T08:35:54.258Z,21.44
2017-09-11T08:38:21.694Z,20.61
2017-09-11T08:40:49.119Z,20.39
2017-09-11T08:43:16.575Z,19.87
2017-09-11T08:45:44.031Z,19.91
2017-09-11T08:48:11.414Z,19.78
2017-09-11T08:50:38.806Z,19.72
2017-09-11T08:53:06.169Z,20.06
2017-09-11T08:55:33.663Z,20.41
2017-09-11T08:58:01.038Z,20.65
2017-09-11T09:00:28.438Z,20.70
2017-09-11T09:02:55.806Z,20.81
2017-09-11T09:05:23.197Z,20.73
2017-09-11T09:07:50.578Z,20.19
2017-09-11T09:10:17.971Z,19.69
2017-09-11T09:12:45.352Z,20.16
2017-09-11T09:15:12.802Z,20.16
2017-09-11T09:17:40.191Z,20.12
2017-09-11T09:20:07.580Z,19.80
2017-09-11T09:22:34.968Z,19.66
2017-09-11T09:25:02.347Z,19.46
2017-09-11T09:27:29.750Z,19.54
2017-09-11T09:29:57.118Z,19.68
2017-09-11T09:32:24.509Z,19.96
2017-09-11T09:34:51.900Z,20.05
2017-09-11T09:37:19.296Z,20.26
2017-09-11T09:39:46.682Z,19.91
2017-09-11T09:42:14.066Z,19.74
2017-09-11T09:44:41.466Z,19.39
2017-09-11T09:47:08.858Z,19.22
2017-09-11T09:49:36.247Z,19.37
2017-09-11T09:52:03.631Z,18.84
2017-09-11T09:54:31.090Z,18.99
2017-09-11T09:56:59.093Z,18.86
2017-09-11T09:59:26.474Z,18.82
2017-09-11T10:01:54.208Z,19.04
2017-09-11T10:04:21.578Z,19.05
2017-09-11T10:06:48.960Z,18.99
2017-09-11T10:09:16.342Z,19.08
2017-09-11T10:11:43.723Z,18.96
2017-09-11T10:14:12.143Z,18.66
2017-09-11T10:16:40.166Z,18.62
2017-09-11T10:19:07.550Z,18.77
2017-09-11T10:21:34.946Z,18.91
2017-09-11T10:24:02.422Z,18.93
2017-09-11T10:26:30.441Z,19.34
2017-09-11T10:28:57.815Z,19.47
2017-09-11T10:31:25.195Z,19.42
2017-09-11T10:33:52.591Z,19.30
2017-09-11T10:36:19.980Z,19.08
2017-09-11T10:38:47.355Z,19.13
2017-09-11T10:41:14.822Z,19.19
2017-09-11T10:43:42.207Z,19.30
2017-09-11T10:46:09.597Z,19.60
2017-09-11T10:48:36.978Z,19.77
2017-09-11T10:51:04.365Z,20.11
2017-09-11T10:53:31.743Z,20.55
2017-09-11T10:55:59.157Z,20.60
2017-09-11T10:58:26.534Z,20.79
2017-09-11T11:00:53.944Z,20.76
2017-09-11T11:03:21.326Z,20.88
2017-09-11T11:05:48.791Z,20.66
2017-09-11T11:08:16.227Z,20.26
2017-09-11T11:10:43.612Z,20.06
2017-09-11T11:13:10.995Z,20.27
2017-09-11T11:15:38.386Z,20.36
2017-09-11T11:18:05.758Z,20.47
2017-09-11T11:20:33.147Z,20.38
2017-09-11T11:23:00.523Z,20.29
2017-09-11T11:25:27.924Z,20.39
2017-09-11T11:27:55.299Z,20.34
2017-09-11T11:30:22.678Z,20.10
2017-09-11T11:32:50.063Z,20.00
2017-09-11T11:35:17.442Z,20.28
2017-09-11T11:37:44.826Z,20.09
2017-09-11T11:40:12.206Z,20.20
2017-09-11T11:42:39.635Z,20.33
2017-09-11T11:45:07.070Z,20.34
2017-09-11T11:47:34.458Z,20.51
2017-09-11T11:50:01.838Z,20.73
2017-09-11T11:52:29.542Z,20.59
2017-09-11T11:54:56.922Z,20.33
2017-09-11T11:57:24.407Z,20.10
2017-09-11T11:59:51.782Z,20.11
2017-09-11T12:02:19.171Z,19.88
2017-09-11T12:04:46.554Z,19.66
2017-09-11T12:07:13.963Z,19.78
2017-09-11T12:09:41.382Z,19.96
2017-09-11T12:14:40.359Z,20.46
2017-09-11T12:17:07.746Z,20.80
2017-09-11T12:19:35.127Z,20.77
2017-09-11T12:22:02.502Z,20.70
2017-09-11T12:24:29.886Z,20.47
2017-09-11T12:26:57.270Z,20.62
2017-09-11T12:29:24.662Z,20.90
2017-09-11T12:31:52.055Z,20.94
2017-09-11T12:34:19.443Z,21.32
2017-09-11T12:36:46.826Z,21.01
2017-09-11T12:39:14.359Z,20.95
2017-09-11T12:41:41.739Z,21.06
2017-09-11T12:44:09.784Z,20.90
2017-09-11T12:46:38.950Z,21.03
2017-09-11T12:49:06.677Z,21.30
2017-09-11T12:51:34.231Z,21.37
2017-09-11T12:54:01.627Z,21.38
2017-09-11T12:56:29.002Z,21.45
2017-09-11T12:58:56.390Z,21.54
2017-09-11T13:01:23.771Z,21.15
2017-09-11T13:03:51.155Z,21.11
2017-09-11T13:06:18.978Z,21.10
2017-09-11T13:08:46.371Z,21.31
2017-09-11T13:11:13.752Z,21.12
2017-09-11T13:13:41.137Z,21.20
2017-09-11T13:16:08.523Z,21.07
2017-09-11T13:18:35.921Z,21.03
2017-09-11T13:21:03.311Z,21.19
2017-09-11T13:23:30.698Z,21.22
2017-09-11T13:25:58.202Z,21.07
2017-09-11T13:28:25.591Z,21.23
2017-09-11T13:30:53.218Z,21.27
2017-09-11T13:33:20.590Z,21.31
2017-09-11T13:35:47.984Z,21.07
2017-09-11T13:38:15.364Z,20.75
2017-09-11T13:40:42.754Z,20.90
2017-09-11T13:43:10.135Z,20.80
2017-09-11T13:45:37.545Z,20.72
2017-09-11T13:48:05.574Z,20.79
2017-09-11T13:50:32.966Z,20.73
2017-09-11T13:53:00.347Z,20.53
2017-09-11T13:55:27.742Z,20.69
2017-09-11T13:57:55.134Z,21.00
2017-09-11T14:00:22.531Z,20.81
2017-09-11T14:02:49.902Z,20.68
2017-09-11T14:05:17.281Z,20.90
2017-09-11T14:07:44.666Z,20.92
2017-09-11T14:10:12.051Z,20.89
2017-09-11T14:12:39.494Z,20.78
2017-09-11T14:15:06.862Z,20.75
2017-09-11T14:17:34.258Z,20.62
2017-09-11T14:20:01.642Z,20.87
2017-09-11T14:22:29.041Z,20.91
2017-09-11T14:24:56.426Z,20.58
2017-09-11T14:27:23.911Z,20.27
2017-09-11T14:29:51.290Z,20.21
2017-09-11T14:32:18.683Z,20.04
2017-09-11T14:34:46.062Z,20.07
2017-09-11T14:37:13.471Z,20.23
2017-09-11T14:39:40.858Z,20.26
2017-09-11T14:42:08.250Z,20.27
2017-09-11T14:44:35.626Z,20.37
2017-09-11T14:47:03.062Z,20.08
2017-09-11T14:49:30.438Z,20.20
2017-09-11T14:51:57.822Z,20.21
2017-09-11T14:54:25.230Z,20.26
2017-09-11T14:56:52.618Z,20.50
2017-09-11T14:59:20.009Z,20.33
2017-09-11T15:01:47.387Z,20.37
2017-09-11T15:04:14.790Z,20.51
2017-09-11T15:06:42.186Z,20.21
2017-09-11T15:09:09.566Z,20.25
2017-09-11T15:11:36.959Z,20.24
2017-09-11T15:14:04.350Z,20.30
2017-09-11T15:16:31.734Z,20.27
2017-09-11T15:18:59.127Z,19.92
2017-09-11T15:21:26.502Z,19.98
2017-09-11T15:23:54.002Z,19.65
2017-09-11T15:26:21.379Z,19.77
2017-09-11T15:28:48.807Z,19.74
2017-09-11T15:31:16.187Z,20.05
2017-09-11T15:33:43.569Z,20.29
2017-09-11T15:36:10.956Z,20.32
2017-09-11T15:38:38.350Z,20.44
2017-09-11T15:41:05.730Z,20.49
2017-09-11T15:43:33.114Z,20.58
2017-09-11T15:46:00.599Z,20.88
2017-09-11T15:48:27.999Z,20.94
2017-09-11T15:50:55.383Z,20.13
2017-09-11T15:53:22.763Z,19.86
2017-09-11T15:55:50.147Z,19.93
2017-09-11T15:58:17.542Z,19.79
2017-09-11T16:00:44.930Z,20.09
2017-09-11T16:03:12.314Z,19.94
2017-09-11T16:05:39.715Z,19.95
2017-09-11T16:08:07.212Z,19.65
2017-09-11T16:10:34.594Z,19.31
2017-09-11T16:13:01.988Z,19.28
2017-09-11T16:15:29.378Z,19.19
2017-09-11T16:17:56.758Z,19.22
2017-09-11T16:20:24.153Z,19.14
2017-09-11T16:22:51.530Z,18.98
2017-09-11T16:25:18.919Z,19.30
2017-09-11T16:27:46.298Z,19.33
2017-09-11T16:30:13.690Z,19.22
2017-09-11T16:32:41.071Z,19.36
2017-09-11T16:35:08.515Z,19.39
2017-09-11T16:37:35.899Z,19.34
2017-09-11T16:40:03.282Z,19.16
2017-09-11T16:42:30.671Z,19.23
2017-09-11T16:44:58.067Z,19.19
2017-09-11T16:47:25.464Z,19.21
2017-09-11T16:49:52.845Z,19.26
2017-09-11T16:52:20.231Z,19.18
2017-09-11T16:54:47.615Z,18.83
2017-09-11T16:57:14.998Z,18.54
2017-09-11T16:59:42.387Z,18.46
2017-09-11T17:02:09.781Z,18.30
2017-09-11T17:04:37.159Z,18.27
2017-09-11T17:07:04.555Z,18.26
2017-09-11T17:09:31.939Z,18.06
2017-09-11T17:11:59.334Z,18.01
2017-09-11T17:14:26.714Z,18.19
2017-09-11T17:16:54.168Z,17.86
2017-09-11T17:19:21.542Z,17.90
2017-09-11T17:21:48.926Z,17.79
2017-09-11T17:24:16.315Z,17.84
2017-09-11T17:26:43.720Z,17.91
2017-09-11T17:29:11.143Z,17.99
2017-09-11T17:31:38.594Z,17.86
2017-09-11T17:34:05.994Z,17.86
2017-09-11T17:36:33.383Z,17.79
2017-09-11T17:39:00.762Z,17.61
2017-09-11T17:41:28.155Z,17.69
2017-09-11T17:43:55.574Z,17.50
2017-09-11T17:46:22.966Z,17.54
2017-09-11T17:48:50.349Z,17.49
2017-09-11T17:51:17.743Z,17.18
2017-09-11T17:53:45.131Z,17.44
2017-09-11T17:56:12.510Z,17.25
2017-09-11T17:58:39.893Z,17.22
2017-09-11T18:01:07.337Z,17.15
2017-09-11T18:03:34.719Z,17.06
2017-09-11T18:06:02.096Z,16.86
2017-09-11T18:08:29.486Z,16.79
2017-09-11T18:10:56.869Z,16.99
2017-09-11T18:13:24.270Z,16.85
2017-09-11T18:15:51.646Z,16.77
2017-09-11T18:18:19.042Z,16.56
2017-09-11T18:20:46.428Z,16.39
2017-09-11T18:23:13.815Z,16.42
2017-09-11T18:25:41.194Z,16.36
2017-09-11T18:28:08.574Z,16.35
2017-09-11T18:30:35.967Z,16.39
2017-09-11T18:33:03.346Z,16.47
2017-09-11T18:35:30.734Z,16.41
2017-09-11T18:37:58.110Z,16.15
2017-09-11T18:40:25.520Z,16.19
2017-09-11T18:42:53.010Z,16.17
2017-09-11T18:45:20.468Z,16.29
2017-09-11T18:47:48.795Z,15.99
2017-09-11T18:50:16.191Z,15.88
2017-09-11T18:52:43.574Z,15.97
2017-09-11T18:55:11.026Z,16.01
2017-09-11T18:57:38.411Z,16.04
2017-09-11T19:00:05.806Z,15.92
2017-09-11T19:02:33.196Z,15.98
2017-09-11T19:05:00.586Z,15.91
2017-09-11T19:07:27.991Z,15.88
2017-09-11T19:09:55.378Z,15.98
2017-09-11T19:12:22.763Z,15.85
2017-09-11T19:14:50.168Z,15.89
2017-09-11T19:17:17.548Z,16.11
2017-09-11T19:19:44.938Z,15.92
2017-09-11T19:22:12.326Z,15.80
2017-09-11T19:24:39.729Z,15.77
2017-09-11T19:27:07.104Z,15.87
2017-09-11T19:29:34.482Z,16.12
2017-09-11T19:32:01.875Z,16.19
2017-09-11T19:34:29.259Z,16.23
2017-09-11T19:36:56.638Z,16.07
2017-09-11T19:39:24.024Z,16.33
2017-09-11T19:41:51.463Z,16.46
2017-09-11T19:44:18.843Z,16.52
2017-09-11T19:46:50.954Z,16.40
2017-09-11T19:49:18.330Z,16.55
2017-09-11T19:51:45.714Z,16.54
2017-09-11T19:54:13.102Z,16.61
2017-09-11T19:56:40.502Z,16.57
2017-09-11T19:59:07.963Z,16.43
2017-09-11T20:01:35.370Z,16.32
2017-09-11T20:04:02.755Z,16.47
2017-09-11T20:06:30.149Z,16.53
2017-09-11T20:08:57.535Z,16.18
2017-09-11T20:11:24.918Z,16.16
2017-09-11T20:13:52.307Z,16.10
2017-09-11T20:16:19.686Z,16.19
2017-09-11T20:18:47.074Z,16.16
2017-09-11T20:21:14.559Z,16.20
2017-09-11T20:23:41.966Z,16.28
2017-09-11T20:26:09.346Z,16.30
2017-09-11T20:28:38.624Z,16.37
2017-09-11T20:31:06.043Z,16.45
2017-09-11T20:33:33.422Z,16.37
2017-09-11T20:36:00.822Z,16.57
2017-09-11T20:38:28.212Z,16.55
2017-09-11T20:40:55.596Z,16.70
2017-09-11T20:43:22.982Z,16.46
2017-09-11T20:45:50.362Z,16.28
2017-09-11T20:48:17.751Z,16.26
2017-09-11T20:50:45.151Z,16.28
2017-09-11T20:53:12.530Z,16.26
2017-09-11T20:55:39.906Z,16.11
2017-09-11T20:58:07.291Z,16.10
2017-09-11T21:00:34.675Z,16.25
2017-09-11T21:03:02.070Z,16.21
2017-09-11T21:05:29.448Z,16.08
2017-09-11T21:07:56.846Z,16.14
2017-09-11T21:10:24.235Z,16.21
2017-09-11T21:12:51.615Z,16.42
2017-09-11T21:15:19.002Z,16.49
2017-09-11T21:17:46.391Z,16.33
2017-09-11T21:20:13.770Z,16.29
2017-09-11T21:22:41.154Z,16.22
2017-09-11T21:25:08.551Z,16.16
2017-09-11T21:27:35.938Z,16.25
2017-09-11T21:30:03.794Z,16.28
2017-09-11T21:32:31.175Z,16.34
2017-09-11T21:34:58.562Z,16.25
2017-09-11T21:37:25.938Z,16.16
2017-09-11T21:39:53.323Z,16.06
2017-09-11T21:42:20.706Z,16.12
2017-09-11T21:44:48.104Z,16.14
2017-09-11T21:47:16.418Z,16.07
2017-09-11T21:49:43.807Z,15.99
2017-09-11T21:52:11.286Z,15.95
2017-09-11T21:54:38.679Z,15.95
2017-09-11T21:57:06.099Z,16.16
2017-09-11T21:59:33.482Z,16.19
2017-09-11T22:02:00.875Z,16.22
2017-09-11T22:04:28.254Z,16.32
2017-09-11T22:06:55.645Z,16.41
2017-09-11T22:09:23.019Z,16.43
2017-09-11T22:11:50.422Z,16.42
2017-09-11T22:14:17.886Z,16.65
2017-09-11T22:16:45.274Z,16.72
2017-09-11T22:19:12.658Z,16.76
2017-09-11T22:21:40.046Z,16.55
2017-09-11T22:24:07.431Z,16.46
2017-09-11T22:26:34.822Z,16.31
2017-09-11T22:29:02.203Z,16.35
2017-09-11T22:31:29.598Z,16.21
2017-09-11T22:33:56.975Z,16.12
2017-09-11T22:36:24.367Z,16.10
2017-09-11T22:38:51.766Z,15.90
2017-09-11T22:41:19.157Z,15.76
2017-09-11T22:43:46.650Z,15.57
2017-09-11T22:46:14.103Z,15.39
2017-09-11T22:48:41.566Z,15.44
2017-09-11T22:51:08.956Z,15.38
2017-09-11T22:53:36.342Z,15.41
2017-09-11T22:56:03.727Z,15.49
2017-09-11T22:58:31.187Z,15.57
2017-09-11T23:00:58.644Z,15.45
2017-09-11T23:03:26.099Z,15.38
2017-09-11T23:05:53.484Z,15.46
2017-09-11T23:08:20.876Z,15.27
2017-09-11T23:10:48.254Z,15.24
2017-09-11T23:13:15.648Z,15.25
2017-09-11T23:15:43.040Z,15.46
2017-09-11T23:18:13.826Z,15.43
2017-09-11T23:20:41.194Z,15.47
2017-09-11T23:23:08.584Z,15.40
2017-09-11T23:25:36.079Z,15.31
2017-09-11T23:28:03.470Z,15.21
2017-09-11T23:30:30.855Z,15.19
2017-09-11T23:32:58.338Z,15.20
2017-09-11T23:35:25.745Z,15.55
2017-09-11T23:37:53.105Z,15.55
2017-09-11T23:40:20.491Z,15.43
2017-09-11T23:42:47.883Z,15.36
2017-09-11T23:45:15.270Z,15.33
2017-09-11T23:47:42.658Z,15.33
2017-09-11T23:50:10.051Z,15.50
2017-09-11T23:52:37.430Z,15.54
2017-09-11T23:55:04.822Z,15.47
2017-09-11T23:57:32.303Z,15.62
2017-09-11T23:59:59.758Z,15.66
